sensor_id;sensor_type;location;lat;lon;timestamp;P1;durP1;ratioP1;P2;durP2;ratioP2
735;SDS011;352;48.626;9.238;2023-04-16T00:00:01;9.43;;;7.18;;
735;SDS011;352;48.626;9.238;2023-04-16T00:02:30;7.00;;;6.00;;
735;SDS011;352;48.626;9.238;2023-04-16T00:04:57;7.63;;;5.78;;
735;SDS011;352;48.626;9.238;2023-04-16T00:07:24;7.75;;;6.00;;
735;SDS011;352;48.626;9.238;2023-04-16T00:09:51;7.97;;;7.18;;
735;SDS011;352;48.626;9.238;2023-04-16T00:12:17;7.13;;;6.43;;
735;SDS011;352;48.626;9.238;2023-04-16T00:14:44;8.45;;;7.47;;
735;SDS011;352;48.626;9.238;2023-04-16T00:17:11;7.90;;;7.07;;
735;SDS011;352;48.626;9.238;2023-04-16T00:19:39;6.47;;;5.88;;
735;SDS011;352;48.626;9.238;2023-04-16T00:22:05;8.07;;;7.28;;
735;SDS011;352;48.626;9.238;2023-04-16T00:24:32;7.32;;;6.60;;
735;SDS011;352;48.626;9.238;2023-04-16T00:26:59;7.97;;;6.82;;
735;SDS011;352;48.626;9.238;2023-04-16T00:29:25;7.15;;;6.45;;
735;SDS011;352;48.626;9.238;2023-04-16T00:31:52;7.72;;;6.93;;
735;SDS011;352;48.626;9.238;2023-04-16T00:34:19;6.47;;;5.88;;
735;SDS011;352;48.626;9.238;2023-04-16T00:36:47;8.18;;;7.38;;
735;SDS011;352;48.626;9.238;2023-04-16T00:39:14;8.10;;;7.10;;
735;SDS011;352;48.626;9.238;2023-04-16T00:41:41;7.65;;;6.85;;
735;SDS011;352;48.626;9.238;2023-04-16T00:44:08;7.90;;;7.10;;
735;SDS011;352;48.626;9.238;2023-04-16T00:46:35;7.50;;;6.80;;
735;SDS011;352;48.626;9.238;2023-04-16T00:49:02;7.70;;;6.90;;
735;SDS011;352;48.626;9.238;2023-04-16T00:51:29;9.25;;;8.20;;
735;SDS011;352;48.626;9.238;2023-04-16T00:53:58;9.15;;;7.90;;
735;SDS011;352;48.626;9.238;2023-04-16T00:56:24;8.77;;;7.53;;
735;SDS011;352;48.626;9.238;2023-04-16T00:58:51;9.15;;;8.05;;
735;SDS011;352;48.626;9.238;2023-04-16T01:01:20;9.30;;;7.70;;
735;SDS011;352;48.626;9.238;2023-04-16T01:03:47;8.38;;;7.22;;
735;SDS011;352;48.626;9.238;2023-04-16T01:06:15;8.30;;;7.35;;
735;SDS011;352;48.626;9.238;2023-04-16T01:08:42;9.70;;;8.50;;
735;SDS011;352;48.626;9.238;2023-04-16T01:11:11;8.13;;;7.07;;
735;SDS011;352;48.626;9.238;2023-04-16T01:13:39;8.18;;;7.38;;
735;SDS011;352;48.626;9.238;2023-04-16T01:16:05;7.65;;;6.95;;
735;SDS011;352;48.626;9.238;2023-04-16T01:18:32;8.23;;;7.32;;
735;SDS011;352;48.626;9.238;2023-04-16T01:21:01;8.07;;;7.28;;
735;SDS011;352;48.626;9.238;2023-04-16T01:23:28;7.95;;;7.15;;
735;SDS011;352;48.626;9.238;2023-04-16T01:25:55;8.02;;;7.22;;
735;SDS011;352;48.626;9.238;2023-04-16T01:28:22;8.00;;;7.20;;
735;SDS011;352;48.626;9.238;2023-04-16T01:30:48;8.85;;;7.35;;
735;SDS011;352;48.626;9.238;2023-04-16T01:33:17;8.00;;;7.30;;
735;SDS011;352;48.626;9.238;2023-04-16T01:35:44;8.07;;;7.18;;
735;SDS011;352;48.626;9.238;2023-04-16T01:38:12;8.88;;;8.00;;
735;SDS011;352;48.626;9.238;2023-04-16T01:40:38;9.60;;;6.97;;
735;SDS011;352;48.626;9.238;2023-04-16T01:43:05;8.20;;;7.40;;
735;SDS011;352;48.626;9.238;2023-04-16T01:45:32;7.95;;;7.03;;
735;SDS011;352;48.626;9.238;2023-04-16T01:48:00;8.43;;;7.53;;
735;SDS011;352;48.626;9.238;2023-04-16T01:50:27;7.20;;;6.50;;
735;SDS011;352;48.626;9.238;2023-04-16T01:52:55;7.68;;;6.97;;
735;SDS011;352;48.626;9.238;2023-04-16T01:55:23;6.13;;;5.53;;
735;SDS011;352;48.626;9.238;2023-04-16T01:57:50;7.95;;;6.63;;
735;SDS011;352;48.626;9.238;2023-04-16T02:00:17;7.45;;;6.75;;
735;SDS011;352;48.626;9.238;2023-04-16T02:02:44;8.63;;;6.63;;
735;SDS011;352;48.626;9.238;2023-04-16T02:05:11;6.63;;;5.93;;
735;SDS011;352;48.626;9.238;2023-04-16T02:07:37;7.05;;;6.35;;
735;SDS011;352;48.626;9.238;2023-04-16T02:10:05;8.10;;;6.75;;
735;SDS011;352;48.626;9.238;2023-04-16T02:12:35;7.07;;;6.38;;
735;SDS011;352;48.626;9.238;2023-04-16T02:15:02;7.85;;;6.20;;
735;SDS011;352;48.626;9.238;2023-04-16T02:17:29;6.65;;;5.97;;
735;SDS011;352;48.626;9.238;2023-04-16T02:19:56;6.70;;;6.05;;
735;SDS011;352;48.626;9.238;2023-04-16T02:22:22;5.75;;;5.00;;
735;SDS011;352;48.626;9.238;2023-04-16T02:24:49;6.90;;;6.20;;
735;SDS011;352;48.626;9.238;2023-04-16T02:27:16;6.47;;;5.88;;
735;SDS011;352;48.626;9.238;2023-04-16T02:29:44;6.45;;;5.85;;
735;SDS011;352;48.626;9.238;2023-04-16T02:32:10;6.88;;;6.07;;
735;SDS011;352;48.626;9.238;2023-04-16T02:34:37;6.20;;;5.63;;
735;SDS011;352;48.626;9.238;2023-04-16T02:37:04;6.30;;;5.32;;
735;SDS011;352;48.626;9.238;2023-04-16T02:39:30;6.95;;;5.80;;
735;SDS011;352;48.626;9.238;2023-04-16T02:41:57;6.15;;;5.60;;
735;SDS011;352;48.626;9.238;2023-04-16T02:44:26;9.00;;;5.82;;
735;SDS011;352;48.626;9.238;2023-04-16T02:46:54;6.50;;;5.90;;
735;SDS011;352;48.626;9.238;2023-04-16T02:49:21;6.25;;;5.60;;
735;SDS011;352;48.626;9.238;2023-04-16T02:51:47;5.68;;;5.18;;
735;SDS011;352;48.626;9.238;2023-04-16T02:54:14;7.32;;;5.65;;
735;SDS011;352;48.626;9.238;2023-04-16T02:56:41;5.53;;;4.90;;
735;SDS011;352;48.626;9.238;2023-04-16T02:59:07;5.40;;;4.90;;
735;SDS011;352;48.626;9.238;2023-04-16T03:01:34;5.25;;;4.72;;
735;SDS011;352;48.626;9.238;2023-04-16T03:04:02;5.80;;;5.20;;
735;SDS011;352;48.626;9.238;2023-04-16T03:06:29;5.47;;;4.97;;
735;SDS011;352;48.626;9.238;2023-04-16T03:08:56;5.47;;;4.78;;
735;SDS011;352;48.626;9.238;2023-04-16T03:11:23;4.70;;;3.92;;
735;SDS011;352;48.626;9.238;2023-04-16T03:13:50;5.80;;;4.97;;
735;SDS011;352;48.626;9.238;2023-04-16T03:16:17;5.90;;;5.00;;
735;SDS011;352;48.626;9.238;2023-04-16T03:18:44;4.75;;;4.25;;
735;SDS011;352;48.626;9.238;2023-04-16T03:21:12;5.63;;;4.68;;
735;SDS011;352;48.626;9.238;2023-04-16T03:23:39;6.03;;;5.43;;
735;SDS011;352;48.626;9.238;2023-04-16T03:26:06;5.55;;;4.25;;
735;SDS011;352;48.626;9.238;2023-04-16T03:28:32;5.00;;;4.50;;
735;SDS011;352;48.626;9.238;2023-04-16T03:30:59;6.25;;;5.47;;
735;SDS011;352;48.626;9.238;2023-04-16T03:33:26;5.00;;;4.25;;
735;SDS011;352;48.626;9.238;2023-04-16T03:35:55;6.47;;;5.53;;
735;SDS011;352;48.626;9.238;2023-04-16T03:38:24;5.13;;;4.32;;
735;SDS011;352;48.626;9.238;2023-04-16T03:40:50;7.28;;;5.85;;
735;SDS011;352;48.626;9.238;2023-04-16T03:43:17;5.20;;;4.70;;
735;SDS011;352;48.626;9.238;2023-04-16T03:45:44;6.38;;;4.80;;
735;SDS011;352;48.626;9.238;2023-04-16T03:48:11;6.65;;;5.43;;
735;SDS011;352;48.626;9.238;2023-04-16T03:50:38;7.13;;;5.38;;
735;SDS011;352;48.626;9.238;2023-04-16T03:53:05;7.55;;;5.90;;
735;SDS011;352;48.626;9.238;2023-04-16T03:55:33;7.32;;;6.32;;
735;SDS011;352;48.626;9.238;2023-04-16T03:58:00;9.40;;;6.70;;
735;SDS011;352;48.626;9.238;2023-04-16T04:00:27;6.90;;;6.22;;
735;SDS011;352;48.626;9.238;2023-04-16T04:02:54;9.85;;;6.65;;
735;SDS011;352;48.626;9.238;2023-04-16T04:05:21;7.22;;;5.70;;
735;SDS011;352;48.626;9.238;2023-04-16T04:07:47;8.52;;;6.85;;
735;SDS011;352;48.626;9.238;2023-04-16T04:10:14;9.57;;;7.50;;
735;SDS011;352;48.626;9.238;2023-04-16T04:12:42;8.45;;;6.60;;
735;SDS011;352;48.626;9.238;2023-04-16T04:15:09;8.70;;;6.78;;
735;SDS011;352;48.626;9.238;2023-04-16T04:17:37;8.50;;;6.00;;
735;SDS011;352;48.626;9.238;2023-04-16T04:20:04;6.97;;;5.70;;
735;SDS011;352;48.626;9.238;2023-04-16T04:22:31;6.13;;;5.32;;
735;SDS011;352;48.626;9.238;2023-04-16T04:24:58;8.05;;;5.78;;
735;SDS011;352;48.626;9.238;2023-04-16T04:27:24;7.40;;;6.40;;
735;SDS011;352;48.626;9.238;2023-04-16T04:29:52;8.68;;;5.95;;
735;SDS011;352;48.626;9.238;2023-04-16T04:32:19;7.13;;;6.13;;
735;SDS011;352;48.626;9.238;2023-04-16T04:34:46;7.32;;;5.65;;
735;SDS011;352;48.626;9.238;2023-04-16T04:37:12;7.97;;;6.93;;
735;SDS011;352;48.626;9.238;2023-04-16T04:39:39;9.35;;;6.53;;
735;SDS011;352;48.626;9.238;2023-04-16T04:42:06;8.85;;;6.35;;
735;SDS011;352;48.626;9.238;2023-04-16T04:44:33;9.15;;;7.00;;
735;SDS011;352;48.626;9.238;2023-04-16T04:47:01;8.65;;;6.70;;
735;SDS011;352;48.626;9.238;2023-04-16T04:49:27;7.82;;;6.38;;
735;SDS011;352;48.626;9.238;2023-04-16T04:51:54;8.07;;;6.38;;
735;SDS011;352;48.626;9.238;2023-04-16T04:54:21;7.53;;;5.72;;
735;SDS011;352;48.626;9.238;2023-04-16T04:56:48;7.30;;;6.32;;
735;SDS011;352;48.626;9.238;2023-04-16T04:59:16;7.10;;;6.15;;
735;SDS011;352;48.626;9.238;2023-04-16T05:01:43;7.90;;;6.60;;
735;SDS011;352;48.626;9.238;2023-04-16T05:04:11;8.20;;;6.63;;
735;SDS011;352;48.626;9.238;2023-04-16T05:06:37;8.52;;;6.35;;
735;SDS011;352;48.626;9.238;2023-04-16T05:09:04;7.07;;;6.18;;
735;SDS011;352;48.626;9.238;2023-04-16T05:11:35;10.13;;;6.60;;
735;SDS011;352;48.626;9.238;2023-04-16T05:14:02;8.88;;;6.25;;
735;SDS011;352;48.626;9.238;2023-04-16T05:16:28;6.85;;;6.15;;
735;SDS011;352;48.626;9.238;2023-04-16T05:18:55;8.75;;;6.35;;
735;SDS011;352;48.626;9.238;2023-04-16T05:21:24;9.20;;;6.70;;
735;SDS011;352;48.626;9.238;2023-04-16T05:23:51;10.07;;;7.28;;
735;SDS011;352;48.626;9.238;2023-04-16T05:26:18;7.43;;;6.07;;
735;SDS011;352;48.626;9.238;2023-04-16T05:28:44;7.75;;;5.97;;
735;SDS011;352;48.626;9.238;2023-04-16T05:31:11;7.97;;;6.60;;
735;SDS011;352;48.626;9.238;2023-04-16T05:33:38;7.57;;;6.40;;
735;SDS011;352;48.626;9.238;2023-04-16T05:36:05;9.98;;;6.82;;
735;SDS011;352;48.626;9.238;2023-04-16T05:38:33;8.85;;;6.38;;
735;SDS011;352;48.626;9.238;2023-04-16T05:41:00;9.25;;;6.75;;
735;SDS011;352;48.626;9.238;2023-04-16T05:43:26;9.15;;;6.05;;
735;SDS011;352;48.626;9.238;2023-04-16T05:45:53;8.52;;;6.55;;
735;SDS011;352;48.626;9.238;2023-04-16T05:48:20;7.57;;;5.53;;
735;SDS011;352;48.626;9.238;2023-04-16T05:50:47;9.35;;;6.75;;
735;SDS011;352;48.626;9.238;2023-04-16T05:53:14;8.00;;;6.55;;
735;SDS011;352;48.626;9.238;2023-04-16T05:55:44;8.02;;;7.05;;
735;SDS011;352;48.626;9.238;2023-04-16T05:58:11;12.48;;;7.78;;
735;SDS011;352;48.626;9.238;2023-04-16T06:00:37;9.70;;;8.50;;
735;SDS011;352;48.626;9.238;2023-04-16T06:03:05;10.10;;;7.97;;
735;SDS011;352;48.626;9.238;2023-04-16T06:05:31;11.70;;;9.00;;
735;SDS011;352;48.626;9.238;2023-04-16T06:07:58;15.27;;;9.88;;
735;SDS011;352;48.626;9.238;2023-04-16T06:10:25;13.25;;;10.15;;
735;SDS011;352;48.626;9.238;2023-04-16T06:12:53;16.13;;;10.80;;
735;SDS011;352;48.626;9.238;2023-04-16T06:15:20;14.57;;;11.10;;
735;SDS011;352;48.626;9.238;2023-04-16T06:17:47;18.48;;;10.82;;
735;SDS011;352;48.626;9.238;2023-04-16T06:20:14;18.23;;;12.98;;
735;SDS011;352;48.626;9.238;2023-04-16T06:22:41;16.70;;;12.45;;
735;SDS011;352;48.626;9.238;2023-04-16T06:25:08;18.95;;;13.60;;
735;SDS011;352;48.626;9.238;2023-04-16T06:27:35;19.55;;;13.48;;
735;SDS011;352;48.626;9.238;2023-04-16T06:30:03;22.48;;;14.52;;
735;SDS011;352;48.626;9.238;2023-04-16T06:32:31;24.67;;;15.23;;
735;SDS011;352;48.626;9.238;2023-04-16T06:34:57;21.85;;;14.70;;
735;SDS011;352;48.626;9.238;2023-04-16T06:37:24;23.10;;;15.70;;
735;SDS011;352;48.626;9.238;2023-04-16T06:39:51;23.33;;;15.35;;
735;SDS011;352;48.626;9.238;2023-04-16T06:42:18;23.55;;;15.73;;
735;SDS011;352;48.626;9.238;2023-04-16T06:44:45;24.80;;;17.20;;
735;SDS011;352;48.626;9.238;2023-04-16T06:47:13;24.05;;;16.23;;
735;SDS011;352;48.626;9.238;2023-04-16T06:49:40;26.08;;;18.15;;
735;SDS011;352;48.626;9.238;2023-04-16T06:52:07;22.25;;;16.00;;
735;SDS011;352;48.626;9.238;2023-04-16T06:54:34;23.52;;;16.05;;
735;SDS011;352;48.626;9.238;2023-04-16T06:57:01;27.10;;;17.15;;
735;SDS011;352;48.626;9.238;2023-04-16T06:59:28;21.70;;;16.15;;
735;SDS011;352;48.626;9.238;2023-04-16T07:01:55;24.98;;;15.57;;
735;SDS011;352;48.626;9.238;2023-04-16T07:04:23;22.98;;;16.15;;
735;SDS011;352;48.626;9.238;2023-04-16T07:06:50;20.70;;;15.00;;
735;SDS011;352;48.626;9.238;2023-04-16T07:09:16;20.67;;;15.63;;
735;SDS011;352;48.626;9.238;2023-04-16T07:11:43;22.13;;;14.23;;
735;SDS011;352;48.626;9.238;2023-04-16T07:14:10;22.83;;;14.90;;
735;SDS011;352;48.626;9.238;2023-04-16T07:16:37;21.25;;;15.25;;
735;SDS011;352;48.626;9.238;2023-04-16T07:19:04;20.77;;;14.85;;
735;SDS011;352;48.626;9.238;2023-04-16T07:21:32;26.25;;;17.60;;
735;SDS011;352;48.626;9.238;2023-04-16T07:23:59;22.10;;;16.00;;
735;SDS011;352;48.626;9.238;2023-04-16T07:26:26;21.70;;;15.27;;
735;SDS011;352;48.626;9.238;2023-04-16T07:28:53;20.63;;;15.20;;
735;SDS011;352;48.626;9.238;2023-04-16T07:31:19;22.23;;;16.02;;
735;SDS011;352;48.626;9.238;2023-04-16T07:33:46;23.75;;;16.45;;
735;SDS011;352;48.626;9.238;2023-04-16T07:36:13;25.13;;;15.82;;
735;SDS011;352;48.626;9.238;2023-04-16T07:38:41;22.52;;;16.17;;
735;SDS011;352;48.626;9.238;2023-04-16T07:41:08;24.80;;;16.02;;
735;SDS011;352;48.626;9.238;2023-04-16T07:43:34;26.55;;;16.63;;
735;SDS011;352;48.626;9.238;2023-04-16T07:46:01;25.30;;;17.60;;
735;SDS011;352;48.626;9.238;2023-04-16T07:48:28;25.10;;;17.52;;
735;SDS011;352;48.626;9.238;2023-04-16T07:50:55;26.45;;;18.15;;
735;SDS011;352;48.626;9.238;2023-04-16T07:53:22;23.23;;;17.40;;
735;SDS011;352;48.626;9.238;2023-04-16T07:55:50;22.90;;;15.98;;
735;SDS011;352;48.626;9.238;2023-04-16T07:58:17;22.77;;;15.50;;
735;SDS011;352;48.626;9.238;2023-04-16T08:00:43;22.90;;;16.48;;
735;SDS011;352;48.626;9.238;2023-04-16T08:03:10;23.95;;;16.45;;
735;SDS011;352;48.626;9.238;2023-04-16T08:05:37;21.60;;;16.15;;
735;SDS011;352;48.626;9.238;2023-04-16T08:08:04;27.73;;;17.13;;
735;SDS011;352;48.626;9.238;2023-04-16T08:10:31;23.75;;;17.67;;
735;SDS011;352;48.626;9.238;2023-04-16T08:13:00;22.83;;;16.13;;
735;SDS011;352;48.626;9.238;2023-04-16T08:15:26;21.13;;;16.50;;
735;SDS011;352;48.626;9.238;2023-04-16T08:17:53;19.02;;;14.95;;
735;SDS011;352;48.626;9.238;2023-04-16T08:20:20;24.60;;;17.90;;
735;SDS011;352;48.626;9.238;2023-04-16T08:22:47;21.50;;;16.50;;
735;SDS011;352;48.626;9.238;2023-04-16T08:25:14;22.63;;;17.05;;
735;SDS011;352;48.626;9.238;2023-04-16T08:27:40;21.55;;;15.93;;
735;SDS011;352;48.626;9.238;2023-04-16T08:30:09;21.65;;;15.60;;
735;SDS011;352;48.626;9.238;2023-04-16T08:32:36;21.00;;;15.35;;
735;SDS011;352;48.626;9.238;2023-04-16T08:35:03;20.23;;;15.55;;
735;SDS011;352;48.626;9.238;2023-04-16T08:37:30;20.00;;;16.02;;
735;SDS011;352;48.626;9.238;2023-04-16T08:39:57;21.45;;;16.65;;
735;SDS011;352;48.626;9.238;2023-04-16T08:42:27;23.02;;;16.63;;
735;SDS011;352;48.626;9.238;2023-04-16T08:45:00;26.27;;;17.05;;
735;SDS011;352;48.626;9.238;2023-04-16T08:47:34;21.38;;;15.93;;
735;SDS011;352;48.626;9.238;2023-04-16T08:50:02;23.73;;;16.83;;
735;SDS011;352;48.626;9.238;2023-04-16T08:52:30;21.17;;;16.00;;
735;SDS011;352;48.626;9.238;2023-04-16T08:55:00;20.08;;;14.82;;
735;SDS011;352;48.626;9.238;2023-04-16T08:57:32;22.08;;;15.30;;
735;SDS011;352;48.626;9.238;2023-04-16T09:00:05;21.85;;;16.00;;
735;SDS011;352;48.626;9.238;2023-04-16T09:02:35;20.40;;;15.55;;
735;SDS011;352;48.626;9.238;2023-04-16T09:05:03;21.75;;;15.20;;
735;SDS011;352;48.626;9.238;2023-04-16T09:07:32;21.55;;;15.80;;
735;SDS011;352;48.626;9.238;2023-04-16T09:09:59;22.17;;;15.73;;
735;SDS011;352;48.626;9.238;2023-04-16T09:12:26;19.60;;;15.50;;
735;SDS011;352;48.626;9.238;2023-04-16T09:14:55;18.00;;;14.60;;
735;SDS011;352;48.626;9.238;2023-04-16T09:17:23;19.45;;;15.13;;
735;SDS011;352;48.626;9.238;2023-04-16T09:19:51;17.40;;;14.73;;
735;SDS011;352;48.626;9.238;2023-04-16T09:22:18;19.17;;;14.27;;
735;SDS011;352;48.626;9.238;2023-04-16T09:24:45;19.40;;;14.85;;
735;SDS011;352;48.626;9.238;2023-04-16T09:27:12;17.98;;;14.57;;
735;SDS011;352;48.626;9.238;2023-04-16T09:29:39;19.70;;;14.32;;
735;SDS011;352;48.626;9.238;2023-04-16T09:32:07;18.13;;;13.83;;
735;SDS011;352;48.626;9.238;2023-04-16T09:34:37;19.00;;;13.75;;
735;SDS011;352;48.626;9.238;2023-04-16T09:37:21;23.48;;;13.80;;
735;SDS011;352;48.626;9.238;2023-04-16T09:39:52;17.00;;;12.87;;
735;SDS011;352;48.626;9.238;2023-04-16T09:42:22;16.23;;;13.07;;
735;SDS011;352;48.626;9.238;2023-04-16T09:44:49;16.23;;;12.40;;
735;SDS011;352;48.626;9.238;2023-04-16T09:47:16;17.20;;;11.87;;
735;SDS011;352;48.626;9.238;2023-04-16T09:49:43;17.98;;;12.55;;
735;SDS011;352;48.626;9.238;2023-04-16T09:52:13;17.47;;;12.90;;
735;SDS011;352;48.626;9.238;2023-04-16T09:54:44;15.53;;;12.00;;
735;SDS011;352;48.626;9.238;2023-04-16T09:57:12;15.17;;;12.50;;
735;SDS011;352;48.626;9.238;2023-04-16T09:59:38;16.73;;;12.40;;
735;SDS011;352;48.626;9.238;2023-04-16T10:02:06;14.63;;;11.90;;
735;SDS011;352;48.626;9.238;2023-04-16T10:04:43;15.10;;;11.60;;
735;SDS011;352;48.626;9.238;2023-04-16T10:07:12;17.90;;;12.57;;
735;SDS011;352;48.626;9.238;2023-04-16T10:09:39;17.57;;;11.40;;
735;SDS011;352;48.626;9.238;2023-04-16T10:12:06;17.37;;;13.60;;
735;SDS011;352;48.626;9.238;2023-04-16T10:14:33;15.83;;;11.80;;
735;SDS011;352;48.626;9.238;2023-04-16T10:17:01;18.43;;;12.10;;
735;SDS011;352;48.626;9.238;2023-04-16T10:19:28;15.63;;;12.10;;
735;SDS011;352;48.626;9.238;2023-04-16T10:21:56;18.93;;;13.53;;
735;SDS011;352;48.626;9.238;2023-04-16T10:24:25;18.85;;;13.57;;
735;SDS011;352;48.626;9.238;2023-04-16T10:26:51;20.03;;;14.87;;
735;SDS011;352;48.626;9.238;2023-04-16T10:29:19;23.75;;;14.75;;
735;SDS011;352;48.626;9.238;2023-04-16T10:31:47;19.43;;;14.03;;
735;SDS011;352;48.626;9.238;2023-04-16T10:34:15;15.70;;;12.70;;
735;SDS011;352;48.626;9.238;2023-04-16T10:36:45;19.10;;;15.40;;
735;SDS011;352;48.626;9.238;2023-04-16T10:39:14;20.20;;;13.80;;
735;SDS011;352;48.626;9.238;2023-04-16T10:41:45;22.70;;;14.90;;
735;SDS011;352;48.626;9.238;2023-04-16T10:44:11;20.67;;;14.80;;
735;SDS011;352;48.626;9.238;2023-04-16T10:46:38;18.67;;;13.90;;
735;SDS011;352;48.626;9.238;2023-04-16T10:49:13;21.53;;;14.47;;
735;SDS011;352;48.626;9.238;2023-04-16T10:51:42;17.63;;;12.97;;
735;SDS011;352;48.626;9.238;2023-04-16T10:54:18;19.03;;;13.87;;
735;SDS011;352;48.626;9.238;2023-04-16T10:56:48;15.10;;;12.57;;
735;SDS011;352;48.626;9.238;2023-04-16T10:59:16;17.00;;;12.67;;
735;SDS011;352;48.626;9.238;2023-04-16T11:01:45;16.77;;;12.23;;
735;SDS011;352;48.626;9.238;2023-04-16T11:04:25;17.57;;;13.93;;
735;SDS011;352;48.626;9.238;2023-04-16T11:07:00;19.00;;;14.37;;
735;SDS011;352;48.626;9.238;2023-04-16T11:09:49;17.20;;;14.40;;
735;SDS011;352;48.626;9.238;2023-04-16T11:12:19;16.27;;;12.10;;
735;SDS011;352;48.626;9.238;2023-04-16T11:14:48;15.43;;;11.70;;
735;SDS011;352;48.626;9.238;2023-04-16T11:17:16;15.57;;;12.00;;
735;SDS011;352;48.626;9.238;2023-04-16T11:19:42;14.87;;;12.07;;
735;SDS011;352;48.626;9.238;2023-04-16T11:22:11;16.07;;;12.07;;
735;SDS011;352;48.626;9.238;2023-04-16T11:24:38;14.43;;;11.83;;
735;SDS011;352;48.626;9.238;2023-04-16T11:27:05;16.53;;;11.50;;
735;SDS011;352;48.626;9.238;2023-04-16T11:29:33;14.75;;;10.23;;
735;SDS011;352;48.626;9.238;2023-04-16T11:32:00;14.93;;;11.07;;
735;SDS011;352;48.626;9.238;2023-04-16T11:34:27;13.40;;;10.20;;
735;SDS011;352;48.626;9.238;2023-04-16T11:36:54;13.88;;;10.30;;
735;SDS011;352;48.626;9.238;2023-04-16T11:39:21;18.03;;;11.00;;
735;SDS011;352;48.626;9.238;2023-04-16T11:41:49;13.57;;;9.57;;
735;SDS011;352;48.626;9.238;2023-04-16T11:44:17;15.32;;;9.73;;
735;SDS011;352;48.626;9.238;2023-04-16T11:46:47;14.70;;;10.27;;
735;SDS011;352;48.626;9.238;2023-04-16T11:49:14;13.93;;;9.80;;
735;SDS011;352;48.626;9.238;2023-04-16T11:51:42;11.00;;;8.50;;
735;SDS011;352;48.626;9.238;2023-04-16T11:54:16;11.67;;;7.97;;
735;SDS011;352;48.626;9.238;2023-04-16T11:56:45;11.47;;;9.30;;
735;SDS011;352;48.626;9.238;2023-04-16T11:59:13;9.87;;;8.20;;
735;SDS011;352;48.626;9.238;2023-04-16T12:01:41;11.70;;;8.18;;
735;SDS011;352;48.626;9.238;2023-04-16T12:04:12;10.73;;;7.50;;
735;SDS011;352;48.626;9.238;2023-04-16T12:06:39;11.02;;;7.90;;
735;SDS011;352;48.626;9.238;2023-04-16T12:09:21;8.80;;;7.17;;
735;SDS011;352;48.626;9.238;2023-04-16T12:11:48;9.67;;;7.43;;
735;SDS011;352;48.626;9.238;2023-04-16T12:14:15;12.10;;;8.47;;
735;SDS011;352;48.626;9.238;2023-04-16T12:16:42;8.77;;;6.50;;
735;SDS011;352;48.626;9.238;2023-04-16T12:19:09;9.23;;;7.13;;
735;SDS011;352;48.626;9.238;2023-04-16T12:21:38;6.97;;;6.17;;
735;SDS011;352;48.626;9.238;2023-04-16T12:24:06;6.87;;;6.00;;
735;SDS011;352;48.626;9.238;2023-04-16T12:26:35;8.33;;;5.80;;
735;SDS011;352;48.626;9.238;2023-04-16T12:29:18;7.67;;;6.37;;
735;SDS011;352;48.626;9.238;2023-04-16T12:31:46;8.13;;;5.93;;
735;SDS011;352;48.626;9.238;2023-04-16T12:34:15;5.97;;;4.93;;
735;SDS011;352;48.626;9.238;2023-04-16T12:36:43;5.70;;;5.10;;
735;SDS011;352;48.626;9.238;2023-04-16T12:39:11;6.63;;;5.20;;
735;SDS011;352;48.626;9.238;2023-04-16T12:41:40;6.50;;;5.00;;
735;SDS011;352;48.626;9.238;2023-04-16T12:44:08;6.00;;;4.70;;
735;SDS011;352;48.626;9.238;2023-04-16T12:46:37;7.40;;;5.20;;
735;SDS011;352;48.626;9.238;2023-04-16T12:49:04;5.90;;;4.60;;
735;SDS011;352;48.626;9.238;2023-04-16T12:51:33;7.13;;;5.23;;
735;SDS011;352;48.626;9.238;2023-04-16T12:54:00;6.03;;;5.40;;
735;SDS011;352;48.626;9.238;2023-04-16T12:56:27;4.83;;;4.20;;
735;SDS011;352;48.626;9.238;2023-04-16T12:59:03;4.73;;;3.83;;
735;SDS011;352;48.626;9.238;2023-04-16T13:01:33;4.53;;;3.67;;
735;SDS011;352;48.626;9.238;2023-04-16T13:04:01;4.30;;;3.87;;
735;SDS011;352;48.626;9.238;2023-04-16T13:06:31;3.60;;;3.30;;
735;SDS011;352;48.626;9.238;2023-04-16T13:09:01;5.80;;;3.40;;
735;SDS011;352;48.626;9.238;2023-04-16T13:11:32;4.00;;;3.60;;
735;SDS011;352;48.626;9.238;2023-04-16T13:13:59;6.37;;;4.17;;
735;SDS011;352;48.626;9.238;2023-04-16T13:16:25;3.77;;;3.23;;
735;SDS011;352;48.626;9.238;2023-04-16T13:18:52;3.27;;;3.00;;
735;SDS011;352;48.626;9.238;2023-04-16T13:21:19;3.27;;;2.90;;
735;SDS011;352;48.626;9.238;2023-04-16T13:23:51;3.63;;;2.73;;
735;SDS011;352;48.626;9.238;2023-04-16T13:26:18;4.70;;;3.40;;
735;SDS011;352;48.626;9.238;2023-04-16T13:28:46;4.40;;;3.43;;
735;SDS011;352;48.626;9.238;2023-04-16T13:31:12;4.70;;;3.20;;
735;SDS011;352;48.626;9.238;2023-04-16T13:33:47;4.30;;;3.70;;
735;SDS011;352;48.626;9.238;2023-04-16T13:36:15;4.27;;;3.30;;
735;SDS011;352;48.626;9.238;2023-04-16T13:38:42;4.00;;;3.60;;
735;SDS011;352;48.626;9.238;2023-04-16T13:41:13;5.27;;;4.10;;
735;SDS011;352;48.626;9.238;2023-04-16T13:43:40;6.00;;;4.40;;
735;SDS011;352;48.626;9.238;2023-04-16T13:46:07;4.27;;;3.87;;
735;SDS011;352;48.626;9.238;2023-04-16T13:48:33;5.73;;;3.77;;
735;SDS011;352;48.626;9.238;2023-04-16T13:51:01;3.90;;;3.60;;
735;SDS011;352;48.626;9.238;2023-04-16T13:53:32;3.40;;;3.10;;
735;SDS011;352;48.626;9.238;2023-04-16T13:55:58;4.53;;;4.13;;
735;SDS011;352;48.626;9.238;2023-04-16T13:58:29;5.53;;;3.93;;
735;SDS011;352;48.626;9.238;2023-04-16T14:00:55;3.57;;;3.27;;
735;SDS011;352;48.626;9.238;2023-04-16T14:03:25;4.30;;;3.67;;
735;SDS011;352;48.626;9.238;2023-04-16T14:05:59;4.73;;;4.03;;
735;SDS011;352;48.626;9.238;2023-04-16T14:08:25;10.63;;;4.10;;
735;SDS011;352;48.626;9.238;2023-04-16T14:10:55;4.40;;;4.00;;
735;SDS011;352;48.626;9.238;2023-04-16T14:13:22;4.40;;;4.00;;
735;SDS011;352;48.626;9.238;2023-04-16T14:15:51;6.30;;;4.20;;
735;SDS011;352;48.626;9.238;2023-04-16T14:18:18;6.37;;;4.60;;
735;SDS011;352;48.626;9.238;2023-04-16T14:20:48;4.50;;;4.10;;
735;SDS011;352;48.626;9.238;2023-04-16T14:23:15;5.30;;;4.37;;
735;SDS011;352;48.626;9.238;2023-04-16T14:25:42;5.47;;;3.90;;
735;SDS011;352;48.626;9.238;2023-04-16T14:28:08;4.30;;;3.83;;
735;SDS011;352;48.626;9.238;2023-04-16T14:30:35;5.10;;;4.40;;
735;SDS011;352;48.626;9.238;2023-04-16T14:33:05;4.93;;;4.43;;
735;SDS011;352;48.626;9.238;2023-04-16T14:35:35;5.37;;;4.40;;
735;SDS011;352;48.626;9.238;2023-04-16T14:38:01;5.50;;;4.90;;
735;SDS011;352;48.626;9.238;2023-04-16T14:40:28;4.50;;;4.10;;
735;SDS011;352;48.626;9.238;2023-04-16T14:42:55;6.57;;;5.40;;
735;SDS011;352;48.626;9.238;2023-04-16T14:45:21;5.20;;;4.37;;
735;SDS011;352;48.626;9.238;2023-04-16T14:47:53;5.53;;;4.90;;
735;SDS011;352;48.626;9.238;2023-04-16T14:50:22;4.90;;;4.40;;
735;SDS011;352;48.626;9.238;2023-04-16T14:52:56;6.17;;;5.30;;
735;SDS011;352;48.626;9.238;2023-04-16T14:55:23;6.53;;;5.83;;
735;SDS011;352;48.626;9.238;2023-04-16T14:57:52;6.17;;;4.90;;
735;SDS011;352;48.626;9.238;2023-04-16T15:00:23;5.83;;;5.30;;
735;SDS011;352;48.626;9.238;2023-04-16T15:02:50;7.10;;;5.70;;
735;SDS011;352;48.626;9.238;2023-04-16T15:05:16;8.13;;;5.90;;
735;SDS011;352;48.626;9.238;2023-04-16T15:07:44;7.90;;;6.50;;
735;SDS011;352;48.626;9.238;2023-04-16T15:10:11;7.67;;;6.13;;
735;SDS011;352;48.626;9.238;2023-04-16T15:12:38;7.53;;;6.33;;
735;SDS011;352;48.626;9.238;2023-04-16T15:15:06;5.90;;;5.30;;
735;SDS011;352;48.626;9.238;2023-04-16T15:17:33;7.67;;;6.90;;
735;SDS011;352;48.626;9.238;2023-04-16T15:20:00;11.90;;;8.60;;
735;SDS011;352;48.626;9.238;2023-04-16T15:22:30;8.67;;;7.80;;
735;SDS011;352;48.626;9.238;2023-04-16T15:24:58;10.50;;;9.40;;
735;SDS011;352;48.626;9.238;2023-04-16T15:27:28;11.93;;;9.93;;
735;SDS011;352;48.626;9.238;2023-04-16T15:29:54;13.60;;;8.37;;
735;SDS011;352;48.626;9.238;2023-04-16T15:32:21;12.30;;;9.70;;
735;SDS011;352;48.626;9.238;2023-04-16T15:34:48;15.20;;;10.73;;
735;SDS011;352;48.626;9.238;2023-04-16T15:37:15;12.23;;;9.80;;